sensor_id;sensor_type;location;lat;lon;timestamp;P1;durP1;ratioP1;P2;durP2;ratioP2
78027;SDS011;67235;45.638;11.714;2023-02-24T00:00:07;119.70;;;51.57;;
78027;SDS011;67235;45.638;11.714;2023-02-24T00:02:54;134.65;;;55.95;;
78027;SDS011;67235;45.638;11.714;2023-02-24T00:05:20;125.00;;;55.13;;
78027;SDS011;67235;45.638;11.714;2023-02-24T00:07:47;111.35;;;51.30;;
78027;SDS011;67235;45.638;11.714;2023-02-24T00:10:14;115.30;;;51.90;;
78027;SDS011;67235;45.638;11.714;2023-02-24T00:12:44;109.32;;;48.35;;
78027;SDS011;67235;45.638;11.714;2023-02-24T00:15:13;112.47;;;50.97;;
78027;SDS011;67235;45.638;11.714;2023-02-24T00:17:40;108.60;;;50.22;;
78027;SDS011;67235;45.638;11.714;2023-02-24T00:20:07;115.68;;;52.13;;
78027;SDS011;67235;45.638;11.714;2023-02-24T00:22:37;121.10;;;52.43;;
78027;SDS011;67235;45.638;11.714;2023-02-24T00:25:05;119.15;;;55.15;;
78027;SDS011;67235;45.638;11.714;2023-02-24T00:27:31;106.30;;;50.20;;
78027;SDS011;67235;45.638;11.714;2023-02-24T00:29:58;108.70;;;52.55;;
78027;SDS011;67235;45.638;11.714;2023-02-24T00:32:26;92.65;;;46.63;;
78027;SDS011;67235;45.638;11.714;2023-02-24T00:34:53;113.00;;;49.33;;
78027;SDS011;67235;45.638;11.714;2023-02-24T00:37:19;162.68;;;57.78;;
78027;SDS011;67235;45.638;11.714;2023-02-24T00:39:50;125.10;;;53.33;;
78027;SDS011;67235;45.638;11.714;2023-02-24T00:42:16;156.45;;;51.60;;
78027;SDS011;67235;45.638;11.714;2023-02-24T00:44:45;113.37;;;52.07;;
78027;SDS011;67235;45.638;11.714;2023-02-24T00:47:12;212.80;;;59.80;;
78027;SDS011;67235;45.638;11.714;2023-02-24T00:49:40;159.52;;;58.72;;
78027;SDS011;67235;45.638;11.714;2023-02-24T00:52:13;209.07;;;69.57;;
78027;SDS011;67235;45.638;11.714;2023-02-24T00:54:43;168.10;;;62.65;;
78027;SDS011;67235;45.638;11.714;2023-02-24T00:57:10;209.83;;;71.60;;
78027;SDS011;67235;45.638;11.714;2023-02-24T00:59:36;197.25;;;76.03;;
78027;SDS011;67235;45.638;11.714;2023-02-24T01:02:03;147.25;;;64.20;;
78027;SDS011;67235;45.638;11.714;2023-02-24T01:04:31;145.52;;;62.88;;
78027;SDS011;67235;45.638;11.714;2023-02-24T01:06:57;116.77;;;55.97;;
78027;SDS011;67235;45.638;11.714;2023-02-24T01:09:29;124.97;;;56.50;;
78027;SDS011;67235;45.638;11.714;2023-02-24T01:11:56;122.35;;;58.22;;
78027;SDS011;67235;45.638;11.714;2023-02-24T01:14:42;109.63;;;51.45;;
78027;SDS011;67235;45.638;11.714;2023-02-24T01:17:12;105.25;;;50.08;;
78027;SDS011;67235;45.638;11.714;2023-02-24T01:19:38;103.07;;;50.10;;
78027;SDS011;67235;45.638;11.714;2023-02-24T01:22:05;100.20;;;50.08;;
78027;SDS011;67235;45.638;11.714;2023-02-24T01:24:35;101.10;;;51.03;;
78027;SDS011;67235;45.638;11.714;2023-02-24T01:27:03;102.18;;;50.35;;
78027;SDS011;67235;45.638;11.714;2023-02-24T01:29:29;107.07;;;51.60;;
78027;SDS011;67235;45.638;11.714;2023-02-24T01:31:55;104.70;;;51.53;;
78027;SDS011;67235;45.638;11.714;2023-02-24T01:34:24;111.93;;;55.17;;
78027;SDS011;67235;45.638;11.714;2023-02-24T01:36:51;119.70;;;54.45;;
78027;SDS011;67235;45.638;11.714;2023-02-24T01:39:17;109.68;;;50.80;;
78027;SDS011;67235;45.638;11.714;2023-02-24T01:41:44;100.50;;;48.80;;
78027;SDS011;67235;45.638;11.714;2023-02-24T01:46:47;122.35;;;56.03;;
78027;SDS011;67235;45.638;11.714;2023-02-24T01:51:59;127.07;;;56.67;;
78027;SDS011;67235;45.638;11.714;2023-02-24T01:54:36;112.73;;;51.10;;
78027;SDS011;67235;45.638;11.714;2023-02-24T01:57:08;107.53;;;50.47;;
78027;SDS011;67235;45.638;11.714;2023-02-24T01:59:40;98.22;;;50.13;;
78027;SDS011;67235;45.638;11.714;2023-02-24T02:02:10;97.25;;;48.22;;
78027;SDS011;67235;45.638;11.714;2023-02-24T02:04:53;104.50;;;50.22;;
78027;SDS011;67235;45.638;11.714;2023-02-24T02:07:27;102.20;;;50.10;;
78027;SDS011;67235;45.638;11.714;2023-02-24T02:09:54;102.32;;;48.78;;
78027;SDS011;67235;45.638;11.714;2023-02-24T02:12:28;102.65;;;49.83;;
78027;SDS011;67235;45.638;11.714;2023-02-24T02:14:57;110.35;;;50.22;;
78027;SDS011;67235;45.638;11.714;2023-02-24T02:17:45;174.13;;;54.58;;
78027;SDS011;67235;45.638;11.714;2023-02-24T02:23:47;118.95;;;54.78;;
78027;SDS011;67235;45.638;11.714;2023-02-24T02:29:18;106.45;;;49.92;;
78027;SDS011;67235;45.638;11.714;2023-02-24T02:35:17;95.40;;;45.77;;
78027;SDS011;67235;45.638;11.714;2023-02-24T02:38:13;104.82;;;50.13;;
78027;SDS011;67235;45.638;11.714;2023-02-24T02:44:06;98.15;;;46.92;;
78027;SDS011;67235;45.638;11.714;2023-02-24T02:46:46;98.28;;;48.25;;
78027;SDS011;67235;45.638;11.714;2023-02-24T02:52:00;96.10;;;46.53;;
78027;SDS011;67235;45.638;11.714;2023-02-24T02:54:34;94.88;;;47.15;;
78027;SDS011;67235;45.638;11.714;2023-02-24T02:57:18;90.43;;;46.72;;
78027;SDS011;67235;45.638;11.714;2023-02-24T02:59:54;93.10;;;49.47;;
78027;SDS011;67235;45.638;11.714;2023-02-24T03:02:25;102.83;;;50.83;;
78027;SDS011;67235;45.638;11.714;2023-02-24T03:04:55;103.05;;;48.78;;
78027;SDS011;67235;45.638;11.714;2023-02-24T03:07:24;94.60;;;50.40;;
78027;SDS011;67235;45.638;11.714;2023-02-24T03:09:57;97.75;;;45.53;;
78027;SDS011;67235;45.638;11.714;2023-02-24T03:12:26;79.00;;;46.08;;
78027;SDS011;67235;45.638;11.714;2023-02-24T03:14:57;74.37;;;42.70;;
78027;SDS011;67235;45.638;11.714;2023-02-24T03:17:27;78.55;;;43.70;;
78027;SDS011;67235;45.638;11.714;2023-02-24T03:20:19;110.53;;;49.47;;
78027;SDS011;67235;45.638;11.714;2023-02-24T03:22:59;191.63;;;53.53;;
78027;SDS011;67235;45.638;11.714;2023-02-24T03:25:38;123.57;;;52.67;;
78027;SDS011;67235;45.638;11.714;2023-02-24T03:28:13;129.80;;;52.93;;
78027;SDS011;67235;45.638;11.714;2023-02-24T03:31:27;119.28;;;53.20;;
78027;SDS011;67235;45.638;11.714;2023-02-24T03:36:27;228.07;;;55.25;;
78027;SDS011;67235;45.638;11.714;2023-02-24T03:38:54;119.20;;;51.08;;
78027;SDS011;67235;45.638;11.714;2023-02-24T03:41:26;230.17;;;56.60;;
78027;SDS011;67235;45.638;11.714;2023-02-24T03:43:58;119.72;;;54.22;;
78027;SDS011;67235;45.638;11.714;2023-02-24T03:46:25;117.82;;;53.70;;
78027;SDS011;67235;45.638;11.714;2023-02-24T03:48:54;101.43;;;49.33;;
78027;SDS011;67235;45.638;11.714;2023-02-24T03:51:24;97.25;;;49.55;;
78027;SDS011;67235;45.638;11.714;2023-02-24T03:56:45;91.88;;;46.55;;
78027;SDS011;67235;45.638;11.714;2023-02-24T03:59:33;87.93;;;46.63;;
78027;SDS011;67235;45.638;11.714;2023-02-24T04:02:22;89.47;;;48.00;;
78027;SDS011;67235;45.638;11.714;2023-02-24T04:04:56;89.50;;;46.38;;
78027;SDS011;67235;45.638;11.714;2023-02-24T04:12:41;85.25;;;45.05;;
78027;SDS011;67235;45.638;11.714;2023-02-24T04:15:25;91.78;;;47.63;;
78027;SDS011;67235;45.638;11.714;2023-02-24T04:20:45;90.53;;;48.27;;
78027;SDS011;67235;45.638;11.714;2023-02-24T04:23:17;102.65;;;49.28;;
78027;SDS011;67235;45.638;11.714;2023-02-24T04:25:50;107.32;;;52.78;;
78027;SDS011;67235;45.638;11.714;2023-02-24T04:28:20;112.20;;;54.75;;
78027;SDS011;67235;45.638;11.714;2023-02-24T04:30:48;114.03;;;55.05;;
78027;SDS011;67235;45.638;11.714;2023-02-24T04:33:18;110.63;;;57.07;;
78027;SDS011;67235;45.638;11.714;2023-02-24T04:35:44;123.80;;;59.88;;
78027;SDS011;67235;45.638;11.714;2023-02-24T04:38:11;115.22;;;57.45;;
78027;SDS011;67235;45.638;11.714;2023-02-24T04:40:37;113.82;;;56.17;;
78027;SDS011;67235;45.638;11.714;2023-02-24T04:43:04;114.65;;;54.63;;
78027;SDS011;67235;45.638;11.714;2023-02-24T04:45:31;107.73;;;53.13;;
78027;SDS011;67235;45.638;11.714;2023-02-24T04:47:58;118.32;;;56.22;;
78027;SDS011;67235;45.638;11.714;2023-02-24T04:50:27;119.07;;;56.17;;
78027;SDS011;67235;45.638;11.714;2023-02-24T04:52:58;132.50;;;56.65;;
78027;SDS011;67235;45.638;11.714;2023-02-24T04:55:34;118.03;;;57.28;;
78027;SDS011;67235;45.638;11.714;2023-02-24T04:58:05;111.23;;;53.50;;
78027;SDS011;67235;45.638;11.714;2023-02-24T05:00:34;103.32;;;52.30;;
78027;SDS011;67235;45.638;11.714;2023-02-24T05:03:01;106.85;;;53.40;;
78027;SDS011;67235;45.638;11.714;2023-02-24T05:05:29;106.18;;;53.55;;
78027;SDS011;67235;45.638;11.714;2023-02-24T05:07:59;101.13;;;53.40;;
78027;SDS011;67235;45.638;11.714;2023-02-24T05:10:40;108.03;;;53.47;;
78027;SDS011;67235;45.638;11.714;2023-02-24T05:13:10;112.18;;;54.17;;
78027;SDS011;67235;45.638;11.714;2023-02-24T05:15:39;97.18;;;50.35;;
78027;SDS011;67235;45.638;11.714;2023-02-24T05:18:07;96.57;;;49.72;;
78027;SDS011;67235;45.638;11.714;2023-02-24T05:20:38;95.33;;;48.27;;
78027;SDS011;67235;45.638;11.714;2023-02-24T05:23:25;104.38;;;52.17;;
78027;SDS011;67235;45.638;11.714;2023-02-24T05:25:56;101.90;;;51.95;;
78027;SDS011;67235;45.638;11.714;2023-02-24T05:28:23;98.70;;;51.58;;
78027;SDS011;67235;45.638;11.714;2023-02-24T05:30:50;99.90;;;51.20;;
78027;SDS011;67235;45.638;11.714;2023-02-24T05:33:18;99.20;;;52.43;;
78027;SDS011;67235;45.638;11.714;2023-02-24T05:35:47;109.68;;;52.65;;
78027;SDS011;67235;45.638;11.714;2023-02-24T05:38:15;106.40;;;52.10;;
78027;SDS011;67235;45.638;11.714;2023-02-24T05:40:47;98.07;;;51.42;;
78027;SDS011;67235;45.638;11.714;2023-02-24T05:43:13;98.35;;;51.05;;
78027;SDS011;67235;45.638;11.714;2023-02-24T05:45:45;105.53;;;52.77;;
78027;SDS011;67235;45.638;11.714;2023-02-24T05:48:12;106.40;;;52.30;;
78027;SDS011;67235;45.638;11.714;2023-02-24T05:50:41;100.97;;;52.63;;
78027;SDS011;67235;45.638;11.714;2023-02-24T05:53:16;111.25;;;53.63;;
78027;SDS011;67235;45.638;11.714;2023-02-24T05:55:43;95.53;;;48.03;;
78027;SDS011;67235;45.638;11.714;2023-02-24T05:58:09;96.20;;;48.83;;
78027;SDS011;67235;45.638;11.714;2023-02-24T06:00:35;109.97;;;51.35;;
78027;SDS011;67235;45.638;11.714;2023-02-24T06:03:04;98.20;;;48.80;;
78027;SDS011;67235;45.638;11.714;2023-02-24T06:05:42;102.95;;;51.65;;
78027;SDS011;67235;45.638;11.714;2023-02-24T06:08:21;106.53;;;54.40;;
78027;SDS011;67235;45.638;11.714;2023-02-24T06:11:09;100.82;;;50.60;;
78027;SDS011;67235;45.638;11.714;2023-02-24T06:13:39;110.63;;;53.30;;
78027;SDS011;67235;45.638;11.714;2023-02-24T06:16:09;107.80;;;53.13;;
78027;SDS011;67235;45.638;11.714;2023-02-24T06:18:37;106.57;;;52.88;;
78027;SDS011;67235;45.638;11.714;2023-02-24T06:21:05;123.93;;;57.83;;
78027;SDS011;67235;45.638;11.714;2023-02-24T06:23:37;105.68;;;51.03;;
78027;SDS011;67235;45.638;11.714;2023-02-24T06:26:06;112.50;;;52.95;;
78027;SDS011;67235;45.638;11.714;2023-02-24T06:28:39;120.00;;;55.45;;
78027;SDS011;67235;45.638;11.714;2023-02-24T06:31:14;124.20;;;59.53;;
78027;SDS011;67235;45.638;11.714;2023-02-24T06:33:47;151.57;;;62.63;;
78027;SDS011;67235;45.638;11.714;2023-02-24T06:36:19;138.05;;;60.10;;
78027;SDS011;67235;45.638;11.714;2023-02-24T06:38:47;140.07;;;59.33;;
78027;SDS011;67235;45.638;11.714;2023-02-24T06:41:17;146.25;;;61.25;;
78027;SDS011;67235;45.638;11.714;2023-02-24T06:43:46;119.32;;;57.85;;
78027;SDS011;67235;45.638;11.714;2023-02-24T06:46:14;117.90;;;56.47;;
78027;SDS011;67235;45.638;11.714;2023-02-24T06:48:44;116.70;;;55.38;;
78027;SDS011;67235;45.638;11.714;2023-02-24T06:51:13;117.90;;;56.95;;
78027;SDS011;67235;45.638;11.714;2023-02-24T06:53:40;127.35;;;58.75;;
78027;SDS011;67235;45.638;11.714;2023-02-24T06:56:10;136.23;;;61.08;;
78027;SDS011;67235;45.638;11.714;2023-02-24T06:58:45;127.13;;;59.90;;
78027;SDS011;67235;45.638;11.714;2023-02-24T07:01:23;146.45;;;64.72;;
78027;SDS011;67235;45.638;11.714;2023-02-24T07:03:52;138.98;;;61.80;;
78027;SDS011;67235;45.638;11.714;2023-02-24T07:06:32;147.63;;;65.07;;
78027;SDS011;67235;45.638;11.714;2023-02-24T07:09:02;142.88;;;61.45;;
78027;SDS011;67235;45.638;11.714;2023-02-24T07:11:31;156.53;;;64.80;;
78027;SDS011;67235;45.638;11.714;2023-02-24T07:13:58;154.68;;;65.18;;
78027;SDS011;67235;45.638;11.714;2023-02-24T07:16:25;147.02;;;64.13;;
78027;SDS011;67235;45.638;11.714;2023-02-24T07:18:59;146.80;;;64.05;;
78027;SDS011;67235;45.638;11.714;2023-02-24T07:21:33;144.20;;;59.90;;
78027;SDS011;67235;45.638;11.714;2023-02-24T07:24:10;148.67;;;64.10;;
78027;SDS011;67235;45.638;11.714;2023-02-24T07:26:39;148.00;;;63.35;;
78027;SDS011;67235;45.638;11.714;2023-02-24T07:29:06;148.35;;;65.68;;
78027;SDS011;67235;45.638;11.714;2023-02-24T07:31:33;151.18;;;66.07;;
78027;SDS011;67235;45.638;11.714;2023-02-24T07:34:01;150.00;;;65.03;;
78027;SDS011;67235;45.638;11.714;2023-02-24T07:36:27;152.70;;;64.33;;
78027;SDS011;67235;45.638;11.714;2023-02-24T07:38:54;157.88;;;66.03;;
78027;SDS011;67235;45.638;11.714;2023-02-24T07:41:28;156.40;;;65.22;;
78027;SDS011;67235;45.638;11.714;2023-02-24T07:43:57;157.45;;;66.18;;
78027;SDS011;67235;45.638;11.714;2023-02-24T07:46:25;148.93;;;63.90;;
78027;SDS011;67235;45.638;11.714;2023-02-24T07:48:52;147.10;;;62.67;;
78027;SDS011;67235;45.638;11.714;2023-02-24T07:51:20;164.50;;;65.82;;
78027;SDS011;67235;45.638;11.714;2023-02-24T07:53:52;146.18;;;63.42;;
78027;SDS011;67235;45.638;11.714;2023-02-24T07:56:24;161.75;;;68.00;;
78027;SDS011;67235;45.638;11.714;2023-02-24T07:59:03;158.00;;;66.30;;
78027;SDS011;67235;45.638;11.714;2023-02-24T08:01:35;151.38;;;65.18;;
78027;SDS011;67235;45.638;11.714;2023-02-24T08:04:09;166.02;;;64.32;;
78027;SDS011;67235;45.638;11.714;2023-02-24T08:06:38;169.35;;;68.05;;
78027;SDS011;67235;45.638;11.714;2023-02-24T08:09:18;162.80;;;68.55;;
78027;SDS011;67235;45.638;11.714;2023-02-24T08:12:06;155.80;;;64.80;;
78027;SDS011;67235;45.638;11.714;2023-02-24T08:14:35;163.05;;;68.65;;
78027;SDS011;67235;45.638;11.714;2023-02-24T08:17:12;155.73;;;66.32;;
78027;SDS011;67235;45.638;11.714;2023-02-24T08:19:47;147.88;;;63.72;;
78027;SDS011;67235;45.638;11.714;2023-02-24T08:22:39;148.43;;;62.97;;
78027;SDS011;67235;45.638;11.714;2023-02-24T08:25:16;158.63;;;64.83;;
78027;SDS011;67235;45.638;11.714;2023-02-24T08:27:47;147.55;;;63.72;;
78027;SDS011;67235;45.638;11.714;2023-02-24T08:30:20;148.52;;;64.35;;
78027;SDS011;67235;45.638;11.714;2023-02-24T08:32:52;147.23;;;63.33;;
78027;SDS011;67235;45.638;11.714;2023-02-24T08:35:23;150.00;;;63.95;;
78027;SDS011;67235;45.638;11.714;2023-02-24T08:38:15;142.60;;;62.73;;
78027;SDS011;67235;45.638;11.714;2023-02-24T08:40:50;140.90;;;62.67;;
78027;SDS011;67235;45.638;11.714;2023-02-24T08:43:27;143.18;;;63.60;;
78027;SDS011;67235;45.638;11.714;2023-02-24T08:48:53;150.90;;;64.00;;
78027;SDS011;67235;45.638;11.714;2023-02-24T08:51:35;154.47;;;66.93;;
78027;SDS011;67235;45.638;11.714;2023-02-24T08:54:15;156.27;;;67.28;;
78027;SDS011;67235;45.638;11.714;2023-02-24T08:56:52;147.50;;;63.60;;
78027;SDS011;67235;45.638;11.714;2023-02-24T08:59:32;153.43;;;62.08;;
78027;SDS011;67235;45.638;11.714;2023-02-24T09:02:04;151.40;;;64.07;;
78027;SDS011;67235;45.638;11.714;2023-02-24T09:07:27;165.30;;;68.25;;
78027;SDS011;67235;45.638;11.714;2023-02-24T09:10:11;151.55;;;64.05;;
78027;SDS011;67235;45.638;11.714;2023-02-24T09:12:42;152.40;;;65.10;;
78027;SDS011;67235;45.638;11.714;2023-02-24T09:15:09;157.23;;;65.82;;
78027;SDS011;67235;45.638;11.714;2023-02-24T09:17:40;151.43;;;64.37;;
78027;SDS011;67235;45.638;11.714;2023-02-24T09:20:17;154.38;;;63.38;;
78027;SDS011;67235;45.638;11.714;2023-02-24T09:23:03;150.65;;;62.85;;
78027;SDS011;67235;45.638;11.714;2023-02-24T09:25:31;141.70;;;63.15;;
78027;SDS011;67235;45.638;11.714;2023-02-24T09:30:44;145.47;;;62.97;;
78027;SDS011;67235;45.638;11.714;2023-02-24T09:33:16;147.68;;;60.88;;
78027;SDS011;67235;45.638;11.714;2023-02-24T09:35:47;146.20;;;62.75;;
78027;SDS011;67235;45.638;11.714;2023-02-24T09:39:12;148.55;;;63.67;;
78027;SDS011;67235;45.638;11.714;2023-02-24T09:41:40;146.57;;;63.50;;
78027;SDS011;67235;45.638;11.714;2023-02-24T09:44:33;138.33;;;62.53;;
78027;SDS011;67235;45.638;11.714;2023-02-24T09:50:40;143.90;;;64.60;;
78027;SDS011;67235;45.638;11.714;2023-02-24T09:52:43;152.55;;;63.35;;
78027;SDS011;67235;45.638;11.714;2023-02-24T09:58:35;161.13;;;68.50;;
78027;SDS011;67235;45.638;11.714;2023-02-24T10:06:43;159.82;;;66.90;;
78027;SDS011;67235;45.638;11.714;2023-02-24T10:09:20;166.60;;;68.45;;
78027;SDS011;67235;45.638;11.714;2023-02-24T10:11:52;168.13;;;71.67;;
78027;SDS011;67235;45.638;11.714;2023-02-24T10:17:17;188.75;;;77.00;;
78027;SDS011;67235;45.638;11.714;2023-02-24T10:19:48;184.55;;;75.07;;
78027;SDS011;67235;45.638;11.714;2023-02-24T10:22:39;183.30;;;74.05;;
78027;SDS011;67235;45.638;11.714;2023-02-24T10:34:00;169.55;;;73.65;;
78027;SDS011;67235;45.638;11.714;2023-02-24T10:36:31;171.27;;;70.97;;
78027;SDS011;67235;45.638;11.714;2023-02-24T10:39:24;178.10;;;71.20;;
78027;SDS011;67235;45.638;11.714;2023-02-24T10:42:01;181.23;;;74.00;;
78027;SDS011;67235;45.638;11.714;2023-02-24T10:44:42;171.73;;;74.45;;
78027;SDS011;67235;45.638;11.714;2023-02-24T10:47:38;167.52;;;72.20;;
78027;SDS011;67235;45.638;11.714;2023-02-24T10:50:20;169.32;;;72.80;;
78027;SDS011;67235;45.638;11.714;2023-02-24T10:53:02;169.97;;;73.33;;
78027;SDS011;67235;45.638;11.714;2023-02-24T10:55:50;157.50;;;69.30;;
78027;SDS011;67235;45.638;11.714;2023-02-24T10:58:39;164.73;;;73.15;;
78027;SDS011;67235;45.638;11.714;2023-02-24T11:04:20;172.70;;;74.03;;
78027;SDS011;67235;45.638;11.714;2023-02-24T11:07:13;177.83;;;74.60;;
78027;SDS011;67235;45.638;11.714;2023-02-24T11:10:00;167.35;;;72.18;;
78027;SDS011;67235;45.638;11.714;2023-02-24T11:12:34;165.65;;;72.65;;
78027;SDS011;67235;45.638;11.714;2023-02-24T11:15:27;161.40;;;72.28;;
78027;SDS011;67235;45.638;11.714;2023-02-24T11:18:23;161.63;;;72.43;;
78027;SDS011;67235;45.638;11.714;2023-02-24T11:20:56;160.90;;;71.33;;
78027;SDS011;67235;45.638;11.714;2023-02-24T11:26:12;160.35;;;73.88;;
78027;SDS011;67235;45.638;11.714;2023-02-24T11:34:53;154.77;;;67.03;;
78027;SDS011;67235;45.638;11.714;2023-02-24T11:37:31;160.15;;;68.90;;
78027;SDS011;67235;45.638;11.714;2023-02-24T11:42:47;161.02;;;69.07;;
78027;SDS011;67235;45.638;11.714;2023-02-24T11:45:23;147.18;;;68.93;;
78027;SDS011;67235;45.638;11.714;2023-02-24T11:48:17;157.60;;;68.33;;
78027;SDS011;67235;45.638;11.714;2023-02-24T11:50:54;143.20;;;63.40;;
78027;SDS011;67235;45.638;11.714;2023-02-24T11:56:41;141.93;;;64.28;;
78027;SDS011;67235;45.638;11.714;2023-02-24T12:02:18;141.77;;;62.33;;
78027;SDS011;67235;45.638;11.714;2023-02-24T12:05:08;147.05;;;62.25;;
78027;SDS011;67235;45.638;11.714;2023-02-24T12:07:57;140.55;;;60.63;;
78027;SDS011;67235;45.638;11.714;2023-02-24T12:10:39;134.25;;;60.08;;
78027;SDS011;67235;45.638;11.714;2023-02-24T12:16:16;139.73;;;60.77;;
78027;SDS011;67235;45.638;11.714;2023-02-24T12:18:54;150.13;;;62.70;;
78027;SDS011;67235;45.638;11.714;2023-02-24T12:21:28;139.13;;;61.35;;
78027;SDS011;67235;45.638;11.714;2023-02-24T12:23:56;135.13;;;59.33;;
78027;SDS011;67235;45.638;11.714;2023-02-24T12:26:33;134.68;;;59.05;;
78027;SDS011;67235;45.638;11.714;2023-02-24T12:29:20;134.57;;;58.37;;
78027;SDS011;67235;45.638;11.714;2023-02-24T12:32:23;140.45;;;59.55;;
78027;SDS011;67235;45.638;11.714;2023-02-24T12:40:28;135.00;;;57.03;;
78027;SDS011;67235;45.638;11.714;2023-02-24T12:53:57;135.32;;;56.47;;
78027;SDS011;67235;45.638;11.714;2023-02-24T12:59:27;145.73;;;62.05;;
78027;SDS011;67235;45.638;11.714;2023-02-24T13:02:05;141.18;;;60.05;;
78027;SDS011;67235;45.638;11.714;2023-02-24T13:07:49;133.85;;;59.28;;
78027;SDS011;67235;45.638;11.714;2023-02-24T13:10:49;130.23;;;55.67;;
78027;SDS011;67235;45.638;11.714;2023-02-24T13:16:10;128.30;;;54.88;;
78027;SDS011;67235;45.638;11.714;2023-02-24T13:18:37;138.32;;;55.92;;
78027;SDS011;67235;45.638;11.714;2023-02-24T13:21:21;132.63;;;56.88;;
78027;SDS011;67235;45.638;11.714;2023-02-24T13:23:55;128.30;;;55.10;;
78027;SDS011;67235;45.638;11.714;2023-02-24T13:26:25;133.52;;;55.38;;
78027;SDS011;67235;45.638;11.714;2023-02-24T13:29:07;132.75;;;55.53;;
78027;SDS011;67235;45.638;11.714;2023-02-24T13:31:40;131.00;;;53.70;;
78027;SDS011;67235;45.638;11.714;2023-02-24T13:36:58;130.27;;;54.47;;
78027;SDS011;67235;45.638;11.714;2023-02-24T13:39:30;128.35;;;50.75;;
78027;SDS011;67235;45.638;11.714;2023-02-24T13:42:03;132.93;;;53.00;;
78027;SDS011;67235;45.638;11.714;2023-02-24T13:45:52;135.65;;;53.35;;
78027;SDS011;67235;45.638;11.714;2023-02-24T13:57:29;153.30;;;60.53;;
78027;SDS011;67235;45.638;11.714;2023-02-24T14:00:38;146.82;;;62.08;;
78027;SDS011;67235;45.638;11.714;2023-02-24T14:03:25;154.13;;;63.38;;
78027;SDS011;67235;45.638;11.714;2023-02-24T14:05:56;160.37;;;65.27;;
78027;SDS011;67235;45.638;11.714;2023-02-24T14:08:32;150.40;;;61.60;;
78027;SDS011;67235;45.638;11.714;2023-02-24T14:11:10;142.63;;;61.20;;
78027;SDS011;67235;45.638;11.714;2023-02-24T14:13:40;146.07;;;60.15;;
78027;SDS011;67235;45.638;11.714;2023-02-24T14:16:20;148.20;;;62.00;;
78027;SDS011;67235;45.638;11.714;2023-02-24T14:18:58;148.17;;;62.83;;
78027;SDS011;67235;45.638;11.714;2023-02-24T14:21:31;149.95;;;62.17;;
78027;SDS011;67235;45.638;11.714;2023-02-24T14:24:08;150.95;;;61.83;;
78027;SDS011;67235;45.638;11.714;2023-02-24T14:26:43;147.13;;;62.60;;
78027;SDS011;67235;45.638;11.714;2023-02-24T14:29:12;150.82;;;62.25;;
78027;SDS011;67235;45.638;11.714;2023-02-24T14:31:48;150.93;;;60.43;;
78027;SDS011;67235;45.638;11.714;2023-02-24T14:34:38;152.23;;;61.22;;
78027;SDS011;67235;45.638;11.714;2023-02-24T14:37:07;157.63;;;64.40;;
78027;SDS011;67235;45.638;11.714;2023-02-24T14:39:52;152.35;;;63.15;;
78027;SDS011;67235;45.638;11.714;2023-02-24T14:42:23;145.55;;;63.17;;
78027;SDS011;67235;45.638;11.714;2023-02-24T14:44:50;147.40;;;61.43;;
78027;SDS011;67235;45.638;11.714;2023-02-24T14:47:22;145.18;;;61.88;;
78027;SDS011;67235;45.638;11.714;2023-02-24T14:49:53;142.43;;;60.60;;
78027;SDS011;67235;45.638;11.714;2023-02-24T14:52:27;144.25;;;58.75;;
78027;SDS011;67235;45.638;11.714;2023-02-24T14:55:12;145.68;;;59.80;;
78027;SDS011;67235;45.638;11.714;2023-02-24T14:57:49;141.20;;;59.37;;
78027;SDS011;67235;45.638;11.714;2023-02-24T15:00:22;150.52;;;60.15;;
78027;SDS011;67235;45.638;11.714;2023-02-24T15:06:14;154.85;;;63.20;;
78027;SDS011;67235;45.638;11.714;2023-02-24T15:08:48;148.23;;;61.10;;
78027;SDS011;67235;45.638;11.714;2023-02-24T15:11:22;149.83;;;60.73;;
78027;SDS011;67235;45.638;11.714;2023-02-24T15:14:28;150.40;;;60.90;;
78027;SDS011;67235;45.638;11.714;2023-02-24T15:17:02;148.32;;;61.88;;
78027;SDS011;67235;45.638;11.714;2023-02-24T15:19:39;151.35;;;59.80;;
78027;SDS011;67235;45.638;11.714;2023-02-24T15:22:19;147.25;;;61.42;;
78027;SDS011;67235;45.638;11.714;2023-02-24T15:25:19;141.93;;;58.63;;
78027;SDS011;67235;45.638;11.714;2023-02-24T15:28:05;146.23;;;56.65;;
78027;SDS011;67235;45.638;11.714;2023-02-24T15:30:54;144.65;;;58.47;;
78027;SDS011;67235;45.638;11.714;2023-02-24T15:33:45;159.35;;;59.90;;
78027;SDS011;67235;45.638;11.714;2023-02-24T15:36:22;152.18;;;62.47;;
78027;SDS011;67235;45.638;11.714;2023-02-24T15:38:50;145.20;;;61.00;;
78027;SDS011;67235;45.638;11.714;2023-02-24T15:41:19;152.93;;;60.22;;
78027;SDS011;67235;45.638;11.714;2023-02-24T15:43:52;152.15;;;63.60;;
78027;SDS011;67235;45.638;11.714;2023-02-24T15:48:49;153.63;;;61.50;;
78027;SDS011;67235;45.638;11.714;2023-02-24T15:54:14;149.65;;;60.90;;
78027;SDS011;67235;45.638;11.714;2023-02-24T15:56:53;161.85;;;64.45;;
78027;SDS011;67235;45.638;11.714;2023-02-24T15:59:22;153.93;;;63.55;;
78027;SDS011;67235;45.638;11.714;2023-02-24T16:01:48;172.27;;;68.50;;
78027;SDS011;67235;45.638;11.714;2023-02-24T16:04:16;174.43;;;69.05;;
78027;SDS011;67235;45.638;11.714;2023-02-24T16:06:42;175.73;;;69.53;;
78027;SDS011;67235;45.638;11.714;2023-02-24T16:09:20;175.80;;;73.90;;
78027;SDS011;67235;45.638;11.714;2023-02-24T16:11:58;173.47;;;70.20;;
78027;SDS011;67235;45.638;11.714;2023-02-24T16:14:26;163.15;;;62.58;;
78027;SDS011;67235;45.638;11.714;2023-02-24T16:16:52;155.43;;;64.28;;
78027;SDS011;67235;45.638;11.714;2023-02-24T16:19:17;164.70;;;64.13;;
78027;SDS011;67235;45.638;11.714;2023-02-24T16:21:43;164.07;;;64.57;;
78027;SDS011;67235;45.638;11.714;2023-02-24T16:24:10;165.05;;;63.90;;
78027;SDS011;67235;45.638;11.714;2023-02-24T16:26:37;164.60;;;64.13;;
78027;SDS011;67235;45.638;11.714;2023-02-24T16:29:04;146.18;;;63.47;;
78027;SDS011;67235;45.638;11.714;2023-02-24T16:31:36;167.23;;;65.40;;
78027;SDS011;67235;45.638;11.714;2023-02-24T16:34:02;166.38;;;63.67;;
78027;SDS011;67235;45.638;11.714;2023-02-24T16:36:29;162.52;;;64.55;;
78027;SDS011;67235;45.638;11.714;2023-02-24T16:38:55;166.53;;;65.27;;
78027;SDS011;67235;45.638;11.714;2023-02-24T16:41:21;175.68;;;67.20;;
78027;SDS011;67235;45.638;11.714;2023-02-24T16:43:49;163.75;;;64.43;;
78027;SDS011;67235;45.638;11.714;2023-02-24T16:46:19;157.38;;;62.70;;
78027;SDS011;67235;45.638;11.714;2023-02-24T16:48:47;158.95;;;62.47;;
78027;SDS011;67235;45.638;11.714;2023-02-24T16:51:15;158.67;;;62.07;;
78027;SDS011;67235;45.638;11.714;2023-02-24T16:53:41;153.93;;;60.65;;